Anaheim Hills, California
Current Conditions -  °F | °C
As of 3:56 PM on Thursday 27 Nov 2014 (Local Time) from KAJO Reporting Station
Clear Clear  
Wind Chill: 85°   Ceiling: Unl
Heat Index: 85°   Visibility: 10mi
Dew Point: 29°   Wind: 0mph
Humidity: 13%   Direction: NA
Pressure: 30.01"   Gusts: NA
Location:  33.8431°N, 117.777°W
Report Text: KAJO 272356Z AUTO 00000KT 10SM CLR 29/M02 A3001 RMK AO2 56012 T02941016 10316 20227 SLP158 $
Loading
Personal Weather Stations






























Interactive Weather Map New forecast layout! Learn more

10-Day Weather Forecast

Advertisements
Track Severe Weather on mobile